Terminal Aerodrome Forecast
Issued by NWS Cleveland, OH

Home | Current Version | Previous Version | Graphics & Text | Print | Product List | Glossary On
Versions: 1 2 3 4 5 6 7 8 9 10 11 12 13 14 15 16 17 18 19 20 21 22 23 24
000
FTUS41 KCLE 020500
TAFYNG
TAF
KYNG 020527Z 0206/0306 29009KT 6SM BR BKN012 OVC060
      TEMPO 0206/0210 4SM BR BKN008
     FM021000 28008KT 6SM BR SCT008 BKN015
      TEMPO 0210/0214 5SM BR BKN008
     FM021400 28010KT P6SM OVC022
     FM022000 28007KT P6SM SCT030 BKN250
     FM030000 VRB03KT P6SM BKN250=

USA.gov is the U.S. government's official web portal to all federal, state and local government web resources and services.